createdAt,value
2019-05-28T00:01:47.816Z,23.38
2019-05-28T00:06:51.029Z,23.41
2019-05-28T00:11:54.238Z,23.37
2019-05-28T00:16:57.450Z,23.35
2019-05-28T00:22:00.676Z,23.40
2019-05-28T00:27:03.899Z,23.38
2019-05-28T00:32:07.123Z,23.36
2019-05-28T00:37:10.308Z,23.35
2019-05-28T00:42:13.531Z,23.40
2019-05-28T00:47:16.730Z,23.41
2019-05-28T00:52:19.947Z,23.39
2019-05-28T00:57:23.151Z,23.36
2019-05-28T01:02:26.375Z,23.40
2019-05-28T01:07:29.580Z,23.38
2019-05-28T01:12:32.812Z,23.37
2019-05-28T01:17:36.711Z,23.36
2019-05-28T01:22:39.890Z,23.34
2019-05-28T01:27:43.107Z,23.38
2019-05-28T01:32:46.333Z,23.38
2019-05-28T01:37:49.554Z,23.41
2019-05-28T01:42:52.752Z,23.43
2019-05-28T01:47:57.681Z,23.40
2019-05-28T01:53:00.979Z,23.35
2019-05-28T01:58:04.194Z,23.37
2019-05-28T02:03:07.425Z,23.37
2019-05-28T02:08:10.666Z,23.42
2019-05-28T02:13:13.846Z,23.38
2019-05-28T02:18:17.070Z,23.36
2019-05-28T02:23:20.438Z,23.38
2019-05-28T02:28:23.655Z,23.39
2019-05-28T02:33:26.890Z,23.35
2019-05-28T02:38:30.096Z,23.38
2019-05-28T02:43:33.306Z,23.34
2019-05-28T02:48:36.524Z,23.37
2019-05-28T02:53:39.732Z,23.39
2019-05-28T02:58:42.949Z,23.44
2019-05-28T03:03:47.136Z,23.40
2019-05-28T03:08:50.353Z,23.40
2019-05-28T03:13:53.933Z,23.41
2019-05-28T03:18:57.173Z,23.35
2019-05-28T03:24:00.676Z,23.36
2019-05-28T03:29:03.874Z,23.39
2019-05-28T03:34:07.092Z,23.37
2019-05-28T03:39:10.298Z,23.36
2019-05-28T03:44:13.503Z,23.39
2019-05-28T03:49:16.724Z,23.39
2019-05-28T03:54:19.942Z,23.43
2019-05-28T03:59:23.135Z,23.39
2019-05-28T04:04:26.365Z,23.36
2019-05-28T04:09:33.116Z,23.35
2019-05-28T04:14:34.504Z,23.38
2019-05-28T04:19:37.738Z,23.36
2019-05-28T04:24:40.948Z,23.37
2019-05-28T04:29:44.158Z,23.39
2019-05-28T04:34:47.390Z,23.39
2019-05-28T04:39:50.634Z,23.43
2019-05-28T04:44:53.810Z,23.37
2019-05-28T04:49:57.037Z,23.37
2019-05-28T04:55:00.247Z,23.39
2019-05-28T05:00:07.148Z,23.43
2019-05-28T05:05:10.453Z,23.38
2019-05-28T05:10:13.647Z,23.41
2019-05-28T05:15:16.858Z,23.38
2019-05-28T05:20:20.080Z,23.38
2019-05-28T05:25:23.293Z,23.40
2019-05-28T05:30:26.514Z,23.37
2019-05-28T05:35:29.775Z,23.40
2019-05-28T05:40:32.969Z,23.42
2019-05-28T05:45:36.190Z,23.37
2019-05-28T05:50:39.427Z,23.43
2019-05-28T05:55:42.640Z,23.40
2019-05-28T06:00:45.857Z,23.36
2019-05-28T06:05:49.089Z,23.39
2019-05-28T06:10:52.330Z,23.43
2019-05-28T06:15:55.544Z,23.48
2019-05-28T06:21:09.928Z,23.38
2019-05-28T06:26:03.823Z,23.34
2019-05-28T06:31:07.034Z,23.35
2019-05-28T06:36:10.258Z,23.33
2019-05-28T06:41:13.464Z,23.38
2019-05-28T06:46:16.671Z,23.45
2019-05-28T06:51:19.897Z,23.44
2019-05-28T06:56:23.127Z,23.41
2019-05-28T07:01:28.454Z,23.39
2019-05-28T07:06:31.243Z,23.38
2019-05-28T07:11:34.458Z,23.42
2019-05-28T07:16:52.220Z,23.46
2019-05-28T07:21:42.618Z,23.45
2019-05-28T07:26:45.829Z,23.40
2019-05-28T07:31:49.049Z,23.41
2019-05-28T07:36:52.241Z,23.41
2019-05-28T07:41:56.200Z,23.38
2019-05-28T07:46:59.412Z,23.43
2019-05-28T07:52:02.627Z,23.54
2019-05-28T07:57:05.849Z,23.46
2019-05-28T08:02:09.067Z,23.43
2019-05-28T08:07:12.287Z,23.43
2019-05-28T08:12:15.510Z,23.43
2019-05-28T08:17:18.715Z,23.46
2019-05-28T08:22:21.925Z,23.43
2019-05-28T08:27:25.150Z,23.48
2019-05-28T08:32:28.421Z,23.44
2019-05-28T08:37:31.656Z,23.66
2019-05-28T08:42:34.874Z,23.62
2019-05-28T08:47:38.081Z,23.69
2019-05-28T08:52:41.294Z,23.82
2019-05-28T08:57:44.523Z,23.93
2019-05-28T09:02:47.724Z,23.79
2019-05-28T09:07:50.934Z,23.75
2019-05-28T09:12:54.153Z,23.78
2019-05-28T09:17:57.347Z,23.79
2019-05-28T09:23:00.576Z,23.81
2019-05-28T09:28:03.805Z,23.86
2019-05-28T09:33:07.109Z,23.88
2019-05-28T09:38:10.665Z,23.91
2019-05-28T09:43:13.875Z,24.14
2019-05-28T09:48:17.187Z,24.00
2019-05-28T09:53:20.383Z,23.91
2019-05-28T09:58:23.599Z,23.99
2019-05-28T10:03:26.802Z,24.08
2019-05-28T10:08:30.045Z,24.11
2019-05-28T10:13:39.181Z,24.17
2019-05-28T10:18:38.188Z,23.98
2019-05-28T10:23:41.396Z,24.04
2019-05-28T10:28:44.627Z,23.90
2019-05-28T10:33:47.864Z,24.06
2019-05-28T10:38:51.092Z,24.00
2019-05-28T10:43:54.310Z,23.98
2019-05-28T10:48:57.518Z,24.09
2019-05-28T10:54:00.744Z,24.04
2019-05-28T10:59:03.952Z,23.94
2019-05-28T11:04:07.183Z,23.94
2019-05-28T11:09:10.408Z,23.90
2019-05-28T11:14:13.738Z,23.85
2019-05-28T11:19:16.954Z,23.79
2019-05-28T11:24:20.171Z,23.82
2019-05-28T11:29:23.403Z,23.73
2019-05-28T11:34:26.632Z,23.75
2019-05-28T11:39:29.829Z,23.73
2019-05-28T11:44:33.044Z,23.72
2019-05-28T11:49:36.247Z,23.67
2019-05-28T11:54:39.546Z,23.72
2019-05-28T11:59:42.755Z,23.79
2019-05-28T12:04:45.970Z,23.75
2019-05-28T12:09:49.171Z,23.66
2019-05-28T12:14:52.396Z,23.70
2019-05-28T12:19:55.653Z,23.68
2019-05-28T12:24:58.886Z,23.64
2019-05-28T12:30:02.125Z,23.65
2019-05-28T12:35:06.702Z,23.68
2019-05-28T12:40:09.972Z,23.75
2019-05-28T12:45:13.357Z,23.74
2019-05-28T12:50:20.081Z,23.71
2019-05-28T12:55:22.790Z,23.77
2019-05-28T13:00:26.001Z,23.67
2019-05-28T13:05:29.224Z,23.66
2019-05-28T13:10:32.429Z,23.72
2019-05-28T13:15:35.658Z,23.64
2019-05-28T13:20:38.852Z,23.66
2019-05-28T13:25:43.026Z,23.68
2019-05-28T13:30:46.242Z,23.67
2019-05-28T13:35:49.490Z,23.70
2019-05-28T13:40:52.704Z,23.65
2019-05-28T13:45:55.930Z,23.75
2019-05-28T13:50:59.730Z,23.75
2019-05-28T13:56:03.083Z,23.70
2019-05-28T14:01:06.289Z,23.75
2019-05-28T14:06:09.501Z,23.73
2019-05-28T14:11:12.717Z,23.69
2019-05-28T14:16:15.931Z,23.66
2019-05-28T14:21:19.161Z,23.73
2019-05-28T14:26:22.371Z,23.70
2019-05-28T14:31:25.577Z,23.75
2019-05-28T14:36:28.808Z,23.73
2019-05-28T14:41:32.018Z,23.73
2019-05-28T14:46:35.233Z,23.76
2019-05-28T14:51:38.446Z,23.66
2019-05-28T14:56:41.694Z,23.76
2019-05-28T15:01:44.915Z,23.70
2019-05-28T15:06:48.100Z,23.71
2019-05-28T15:11:51.418Z,23.74
2019-05-28T15:16:54.630Z,23.71
2019-05-28T15:21:57.859Z,23.70
2019-05-28T15:27:01.074Z,23.68
2019-05-28T15:32:04.282Z,23.73
2019-05-28T15:37:07.486Z,23.68
2019-05-28T15:42:19.909Z,23.67
2019-05-28T15:47:15.666Z,23.60
2019-05-28T15:52:18.876Z,23.66
2019-05-28T15:57:22.087Z,23.61
2019-05-28T16:02:25.304Z,23.63
2019-05-28T16:07:28.527Z,23.65
2019-05-28T16:12:31.734Z,23.62
2019-05-28T16:17:34.965Z,23.56
2019-05-28T16:22:38.180Z,23.63
2019-05-28T16:27:41.402Z,23.64
2019-05-28T16:32:44.617Z,23.64
2019-05-28T16:37:47.827Z,23.61
2019-05-28T16:42:51.038Z,23.59
2019-05-28T16:47:54.266Z,23.56
2019-05-28T16:52:57.481Z,23.59
2019-05-28T16:58:00.716Z,23.62
2019-05-28T17:03:03.916Z,23.62
2019-05-28T17:08:07.144Z,23.63
2019-05-28T17:13:10.396Z,23.54
2019-05-28T17:18:13.573Z,23.56
2019-05-28T17:23:16.799Z,23.59
2019-05-28T17:28:20.018Z,23.55
2019-05-28T17:33:23.227Z,23.53
2019-05-28T17:38:26.457Z,23.54
2019-05-28T17:43:29.670Z,23.59
2019-05-28T17:48:32.882Z,23.57
2019-05-28T17:53:36.106Z,23.53
2019-05-28T17:58:39.310Z,23.49
2019-05-28T18:03:42.530Z,23.50
2019-05-28T18:08:45.753Z,23.54
2019-05-28T18:13:48.970Z,23.52
2019-05-28T18:18:52.170Z,23.56
2019-05-28T18:23:55.406Z,23.64
2019-05-28T18:28:58.634Z,23.56
2019-05-28T18:34:01.838Z,23.57
2019-05-28T18:39:07.113Z,23.52
2019-05-28T18:44:10.528Z,23.50
2019-05-28T18:49:13.929Z,23.50
2019-05-28T18:54:17.162Z,23.54
2019-05-28T18:59:20.455Z,23.53
2019-05-28T19:04:23.870Z,23.58
2019-05-28T19:09:27.073Z,23.51
2019-05-28T19:14:30.303Z,23.54
2019-05-28T19:19:33.523Z,23.47
2019-05-28T19:24:36.734Z,23.52
2019-05-28T19:29:39.930Z,23.54
2019-05-28T19:34:43.178Z,23.51
2019-05-28T19:39:46.393Z,23.53
2019-05-28T19:44:49.622Z,23.55
2019-05-28T19:49:52.853Z,23.55
2019-05-28T19:54:56.070Z,23.54
2019-05-28T19:59:59.283Z,23.55
2019-05-28T20:05:02.510Z,23.48
2019-05-28T20:10:07.272Z,23.47
2019-05-28T20:15:11.271Z,23.46
2019-05-28T20:20:14.550Z,23.46
2019-05-28T20:25:18.289Z,23.47
2019-05-28T20:30:21.765Z,23.50
2019-05-28T20:35:24.989Z,23.47
2019-05-28T20:40:28.211Z,23.47
2019-05-28T20:45:31.434Z,23.45
2019-05-28T20:50:34.664Z,23.44
2019-05-28T20:55:37.880Z,23.54
2019-05-28T21:00:41.106Z,23.53
2019-05-28T21:05:44.337Z,23.47
2019-05-28T21:10:48.218Z,23.51
2019-05-28T21:15:52.603Z,23.46
2019-05-28T21:20:55.850Z,23.50
2019-05-28T21:25:59.069Z,23.42
2019-05-28T21:31:02.286Z,23.42
2019-05-28T21:36:05.513Z,23.53
2019-05-28T21:41:08.725Z,23.49
2019-05-28T21:46:11.942Z,23.44
2019-05-28T21:51:15.182Z,23.51
2019-05-28T21:56:18.404Z,23.46
2019-05-28T22:01:24.453Z,23.46
2019-05-28T22:06:27.043Z,23.46
2019-05-28T22:11:30.230Z,23.38
2019-05-28T22:16:33.442Z,23.46
2019-05-28T22:21:36.669Z,23.39
2019-05-28T22:26:39.881Z,23.44
2019-05-28T22:31:43.099Z,23.41
2019-05-28T22:36:46.595Z,23.41
2019-05-28T22:41:49.806Z,23.40
2019-05-28T22:46:53.017Z,23.46
2019-05-28T22:51:56.247Z,23.46
2019-05-28T22:57:00.152Z,23.43
2019-05-28T23:02:04.950Z,23.46
2019-05-28T23:07:09.503Z,23.44
2019-05-28T23:12:12.768Z,23.40
2019-05-28T23:17:15.977Z,23.40
2019-05-28T23:22:19.178Z,23.47
2019-05-28T23:27:22.406Z,23.39
2019-05-28T23:32:25.621Z,23.43
2019-05-28T23:37:28.839Z,23.43
2019-05-28T23:42:32.076Z,23.40
2019-05-28T23:47:35.269Z,23.38
2019-05-28T23:52:38.491Z,23.42
2019-05-28T23:57:41.783Z,23.48
